createdAt,value
2023-03-15T00:00:05.093Z,0.00
2023-03-15T00:01:05.023Z,0.00
2023-03-15T00:02:05.024Z,0.00
2023-03-15T00:03:04.886Z,0.00
2023-03-15T00:04:04.811Z,0.00
2023-03-15T00:05:04.749Z,0.00
2023-03-15T00:06:04.690Z,0.00
2023-03-15T00:07:04.609Z,0.00
2023-03-15T00:08:04.721Z,0.00
2023-03-15T00:09:04.473Z,0.00
2023-03-15T00:10:04.414Z,0.00
2023-03-15T00:11:04.333Z,0.00
2023-03-15T00:12:04.265Z,0.00
2023-03-15T00:13:04.193Z,0.00
2023-03-15T00:14:04.131Z,0.00
2023-03-15T00:15:04.052Z,0.00
2023-03-15T00:16:04.066Z,0.00
2023-03-15T00:17:03.907Z,0.00
2023-03-15T00:18:03.894Z,0.00
2023-03-15T00:19:03.785Z,0.00
2023-03-15T00:20:03.705Z,0.00
2023-03-15T00:21:03.632Z,0.00
2023-03-15T00:22:03.563Z,0.00
2023-03-15T00:23:03.498Z,0.00
2023-03-15T00:24:03.427Z,0.00
2023-03-15T00:25:03.353Z,0.00
2023-03-15T00:26:03.288Z,0.00
2023-03-15T00:27:03.217Z,0.00
2023-03-15T00:28:03.149Z,0.00
2023-03-15T00:29:03.078Z,0.00
2023-03-15T00:30:03.006Z,0.00
2023-03-15T00:31:02.968Z,0.00
2023-03-15T00:32:02.882Z,0.00
2023-03-15T00:33:02.801Z,0.00
2023-03-15T00:34:02.735Z,0.00
2023-03-15T00:35:02.672Z,0.00
2023-03-15T00:36:02.721Z,0.00
2023-03-15T00:37:02.567Z,0.00
2023-03-15T00:38:02.497Z,0.00
2023-03-15T00:39:02.388Z,0.00
2023-03-15T00:40:02.317Z,0.00
2023-03-15T00:41:02.249Z,0.00
2023-03-15T00:42:02.194Z,0.00
2023-03-15T00:43:02.121Z,0.00
2023-03-15T00:44:02.054Z,0.00
2023-03-15T00:45:01.973Z,0.00
2023-03-15T00:46:01.927Z,0.00
2023-03-15T00:47:01.832Z,0.00
2023-03-15T00:48:01.765Z,0.00
2023-03-15T00:49:01.688Z,0.00
2023-03-15T00:50:01.630Z,0.00
2023-03-15T00:51:01.597Z,0.00
2023-03-15T00:52:01.514Z,0.00
2023-03-15T00:53:01.418Z,0.00
2023-03-15T00:54:01.348Z,0.00
2023-03-15T00:55:01.283Z,0.00
2023-03-15T00:56:01.208Z,0.00
2023-03-15T00:57:01.141Z,0.00
2023-03-15T00:58:01.074Z,0.00
2023-03-15T00:59:00.992Z,0.00
2023-03-15T01:00:00.931Z,0.00
2023-03-15T01:01:00.861Z,0.00
2023-03-15T01:02:00.826Z,0.00
2023-03-15T01:03:00.786Z,0.00
2023-03-15T01:04:00.651Z,0.00
2023-03-15T01:05:00.584Z,0.00
2023-03-15T01:06:00.510Z,0.00
2023-03-15T01:07:00.441Z,0.00
2023-03-15T01:08:00.374Z,0.00
2023-03-15T01:09:00.305Z,0.00
2023-03-15T01:10:00.238Z,0.00
2023-03-15T01:11:00.161Z,0.00
2023-03-15T01:12:00.099Z,0.00
2023-03-15T01:13:00.031Z,0.00
2023-03-15T01:13:59.965Z,0.00
2023-03-15T01:14:59.892Z,0.00
2023-03-15T01:15:59.861Z,0.00
2023-03-15T01:16:59.755Z,0.00
2023-03-15T01:17:59.676Z,0.00
2023-03-15T01:18:59.617Z,0.00
2023-03-15T01:19:59.557Z,0.00
2023-03-15T01:20:59.487Z,0.00
2023-03-15T01:21:59.400Z,0.00
2023-03-15T01:22:59.338Z,0.00
2023-03-15T01:23:59.265Z,0.00
2023-03-15T01:24:59.199Z,0.00
2023-03-15T01:25:59.127Z,0.00
2023-03-15T01:26:59.060Z,0.00
2023-03-15T01:27:58.985Z,0.00
2023-03-15T01:28:58.955Z,0.00
2023-03-15T01:29:58.852Z,0.00
2023-03-15T01:31:00.011Z,0.00
2023-03-15T01:31:58.708Z,0.00
2023-03-15T01:32:58.687Z,0.00
2023-03-15T01:33:58.568Z,0.00
2023-03-15T01:34:58.498Z,0.00
2023-03-15T01:35:58.456Z,0.00
2023-03-15T01:36:58.358Z,0.00
2023-03-15T01:37:58.306Z,0.00
2023-03-15T01:38:58.227Z,0.00
2023-03-15T01:39:58.150Z,0.00
2023-03-15T01:40:58.089Z,0.00
2023-03-15T01:41:58.011Z,0.00
2023-03-15T01:42:57.941Z,0.00
2023-03-15T01:43:57.874Z,0.00
2023-03-15T01:44:57.808Z,0.00
2023-03-15T01:45:57.740Z,0.00
2023-03-15T01:46:57.704Z,0.00
2023-03-15T01:47:57.614Z,0.00
2023-03-15T01:48:57.530Z,0.00
2023-03-15T01:49:57.461Z,0.00
2023-03-15T01:50:57.398Z,0.00
2023-03-15T01:51:57.320Z,0.00
2023-03-15T01:52:57.261Z,0.00
2023-03-15T01:53:57.180Z,0.00
2023-03-15T01:54:57.106Z,0.00
2023-03-15T01:55:57.040Z,0.00
2023-03-15T01:56:56.962Z,0.00
2023-03-15T01:57:56.906Z,0.00
2023-03-15T01:58:56.829Z,0.00
2023-03-15T01:59:56.764Z,0.00
2023-03-15T02:00:56.733Z,0.00
2023-03-15T02:01:56.684Z,0.00
2023-03-15T02:02:56.570Z,0.00
2023-03-15T02:03:56.483Z,0.00
2023-03-15T02:04:56.414Z,0.00
2023-03-15T02:05:56.349Z,0.00
2023-03-15T02:06:56.271Z,0.00
2023-03-15T02:07:56.203Z,0.00
2023-03-15T02:08:56.140Z,0.00
2023-03-15T02:09:56.062Z,0.00
2023-03-15T02:10:56.018Z,0.00
2023-03-15T02:11:55.945Z,0.00
2023-03-15T02:12:55.864Z,0.00
2023-03-15T02:13:55.785Z,0.00
2023-03-15T02:14:55.709Z,0.00
2023-03-15T02:15:55.645Z,0.00
2023-03-15T02:16:55.574Z,0.00
2023-03-15T02:17:55.525Z,0.00
2023-03-15T02:18:55.432Z,0.00
2023-03-15T02:19:55.364Z,0.00
2023-03-15T02:20:55.286Z,0.00
2023-03-15T02:21:55.223Z,0.00
2023-03-15T02:22:55.155Z,0.00
2023-03-15T02:23:55.085Z,0.00
2023-03-15T02:24:55.014Z,0.00
2023-03-15T02:25:54.938Z,0.00
2023-03-15T02:26:54.937Z,0.00
2023-03-15T02:27:54.798Z,0.00
2023-03-15T02:28:54.730Z,0.00
2023-03-15T02:29:54.661Z,0.00
2023-03-15T02:30:54.591Z,0.00
2023-03-15T02:31:54.545Z,0.00
2023-03-15T02:32:54.497Z,0.00
2023-03-15T02:33:54.383Z,0.00
2023-03-15T02:34:54.307Z,0.00
2023-03-15T02:35:54.278Z,0.00
2023-03-15T02:36:54.207Z,0.00
2023-03-15T02:37:54.102Z,0.00
2023-03-15T02:38:54.042Z,0.00
2023-03-15T02:39:53.970Z,0.00
2023-03-15T02:40:53.894Z,0.00
2023-03-15T02:41:53.825Z,0.00
2023-03-15T02:42:53.742Z,0.00
2023-03-15T02:43:53.680Z,0.00
2023-03-15T02:44:53.612Z,0.00
2023-03-15T02:45:53.617Z,0.00
2023-03-15T02:46:53.486Z,0.00
2023-03-15T02:47:53.405Z,0.00
2023-03-15T02:48:53.330Z,0.00
2023-03-15T02:49:53.261Z,0.00
2023-03-15T02:50:53.217Z,0.00
2023-03-15T02:51:53.122Z,0.00
2023-03-15T02:52:53.050Z,0.00
2023-03-15T02:53:52.982Z,0.00
2023-03-15T02:54:52.935Z,0.00
2023-03-15T02:55:52.869Z,0.00
2023-03-15T02:56:52.785Z,0.00
2023-03-15T02:57:52.700Z,0.00
2023-03-15T02:58:52.631Z,0.00
2023-03-15T02:59:52.559Z,0.00
2023-03-15T03:00:52.512Z,0.00
2023-03-15T03:01:52.446Z,0.00
2023-03-15T03:02:52.352Z,0.00
2023-03-15T03:03:52.278Z,0.00
2023-03-15T03:04:52.211Z,0.00
2023-03-15T03:05:52.157Z,0.00
2023-03-15T03:06:52.081Z,0.00
2023-03-15T03:07:52.004Z,0.00
2023-03-15T03:08:51.932Z,0.00
2023-03-15T03:09:51.861Z,0.00
2023-03-15T03:10:51.790Z,0.00
2023-03-15T03:11:51.721Z,0.00
2023-03-15T03:12:51.646Z,0.00
2023-03-15T03:13:51.580Z,0.00
2023-03-15T03:14:51.508Z,0.00
2023-03-15T03:15:51.436Z,0.00
2023-03-15T03:16:51.479Z,0.00
2023-03-15T03:17:51.292Z,0.00
2023-03-15T03:18:51.231Z,0.00
2023-03-15T03:19:51.160Z,0.00
2023-03-15T03:20:51.084Z,0.00
2023-03-15T03:21:51.021Z,0.00
2023-03-15T03:22:50.951Z,0.00
2023-03-15T03:23:50.887Z,0.00
2023-03-15T03:24:50.802Z,0.00
2023-03-15T03:25:50.733Z,0.00
2023-03-15T03:26:50.663Z,0.00
2023-03-15T03:27:50.590Z,0.00
2023-03-15T03:28:50.521Z,0.00
2023-03-15T03:29:50.447Z,0.00
2023-03-15T03:30:50.423Z,0.00
2023-03-15T03:31:50.314Z,0.00
2023-03-15T03:32:50.301Z,0.00
2023-03-15T03:33:50.165Z,0.00
2023-03-15T03:34:50.119Z,0.00
2023-03-15T03:35:50.052Z,0.00
2023-03-15T03:36:49.955Z,0.00
2023-03-15T03:37:49.900Z,0.00
2023-03-15T03:38:49.833Z,0.00
2023-03-15T03:39:49.746Z,0.00
2023-03-15T03:40:49.677Z,0.00
2023-03-15T03:41:49.603Z,0.00
2023-03-15T03:42:49.542Z,0.00
2023-03-15T03:43:49.483Z,0.00
2023-03-15T03:44:49.395Z,0.00
2023-03-15T03:45:49.371Z,0.00
2023-03-15T03:46:49.260Z,0.00
2023-03-15T03:47:49.178Z,0.00
2023-03-15T03:48:49.125Z,0.00
2023-03-15T03:49:49.042Z,0.00
2023-03-15T03:50:48.973Z,0.00
2023-03-15T03:51:48.903Z,0.00
2023-03-15T03:52:48.833Z,0.00
2023-03-15T03:53:48.761Z,0.00
2023-03-15T03:54:48.689Z,0.00
2023-03-15T03:55:48.620Z,0.00
2023-03-15T03:56:48.546Z,0.00
2023-03-15T03:57:48.482Z,0.00
2023-03-15T03:58:48.416Z,0.00
2023-03-15T03:59:48.339Z,0.00
2023-03-15T04:00:48.276Z,0.00
2023-03-15T04:01:48.204Z,0.00
2023-03-15T04:02:48.190Z,0.00
2023-03-15T04:03:48.059Z,0.00
2023-03-15T04:04:47.996Z,0.00
2023-03-15T04:05:47.926Z,0.00
2023-03-15T04:06:47.844Z,0.00
2023-03-15T04:07:47.781Z,0.00
2023-03-15T04:08:47.701Z,0.00
2023-03-15T04:09:47.638Z,0.00
2023-03-15T04:10:47.573Z,0.00
2023-03-15T04:11:47.499Z,0.00
2023-03-15T04:12:47.435Z,0.00
2023-03-15T04:13:47.367Z,0.00
2023-03-15T04:14:47.290Z,0.00
2023-03-15T04:15:47.243Z,0.00
2023-03-15T04:16:47.146Z,0.00
2023-03-15T04:17:47.085Z,0.00
2023-03-15T04:18:47.004Z,0.00
2023-03-15T04:19:47.150Z,0.00
2023-03-15T04:20:46.974Z,0.00
2023-03-15T04:21:46.814Z,0.00
2023-03-15T04:22:46.733Z,0.00
2023-03-15T04:23:46.651Z,0.00
2023-03-15T04:24:46.588Z,0.00
2023-03-15T04:25:46.510Z,0.00
2023-03-15T04:26:46.452Z,0.00
2023-03-15T04:27:46.379Z,0.00
2023-03-15T04:28:46.305Z,0.00
2023-03-15T04:29:46.234Z,0.00
2023-03-15T04:30:46.169Z,0.00
2023-03-15T04:31:46.186Z,0.00
2023-03-15T04:32:46.078Z,0.00
2023-03-15T04:33:45.957Z,0.00
2023-03-15T04:34:45.882Z,0.00
2023-03-15T04:35:45.864Z,0.00
2023-03-15T04:36:45.768Z,0.00
2023-03-15T04:37:45.696Z,0.00
2023-03-15T04:38:45.604Z,0.00
2023-03-15T04:39:45.539Z,0.00
2023-03-15T04:40:45.466Z,0.00
2023-03-15T04:41:45.396Z,0.00
2023-03-15T04:42:45.329Z,0.00
2023-03-15T04:43:45.257Z,0.00
2023-03-15T04:44:45.203Z,0.00
2023-03-15T04:45:45.119Z,0.00
2023-03-15T04:46:45.071Z,0.00
2023-03-15T04:47:44.985Z,0.00
2023-03-15T04:48:44.934Z,0.00
2023-03-15T04:49:44.839Z,0.00
2023-03-15T04:50:44.789Z,0.00
2023-03-15T04:51:44.696Z,0.00
2023-03-15T04:52:44.631Z,0.00
2023-03-15T04:53:44.555Z,0.00
2023-03-15T04:54:44.497Z,0.00
2023-03-15T04:55:44.420Z,0.00
2023-03-15T04:56:44.380Z,0.00
2023-03-15T04:57:44.297Z,0.00
2023-03-15T04:58:44.210Z,0.00
2023-03-15T04:59:44.139Z,0.00
2023-03-15T05:00:44.126Z,0.00
2023-03-15T05:01:44.037Z,0.00
2023-03-15T05:02:43.925Z,0.00
2023-03-15T05:03:43.857Z,0.00
2023-03-15T05:04:43.790Z,0.00
2023-03-15T05:05:43.717Z,0.00
2023-03-15T05:06:43.647Z,0.00
2023-03-15T05:07:43.572Z,0.00
2023-03-15T05:08:43.502Z,0.00
2023-03-15T05:09:43.433Z,0.00
2023-03-15T05:10:43.366Z,0.00
2023-03-15T05:11:43.297Z,0.00
2023-03-15T05:12:43.220Z,0.00
2023-03-15T05:13:43.151Z,0.00
2023-03-15T05:14:43.140Z,0.00
2023-03-15T05:15:43.013Z,0.00
2023-03-15T05:16:42.966Z,0.00
2023-03-15T05:17:42.891Z,0.00
2023-03-15T05:18:42.800Z,0.00
2023-03-15T05:19:42.751Z,0.00
2023-03-15T05:20:42.664Z,0.00
2023-03-15T05:21:42.594Z,0.00
2023-03-15T05:22:42.522Z,0.00
2023-03-15T05:23:42.483Z,0.00
2023-03-15T05:24:42.380Z,0.00
2023-03-15T05:25:42.309Z,0.00
2023-03-15T05:26:42.240Z,0.00
2023-03-15T05:27:42.168Z,0.00
2023-03-15T05:28:42.123Z,0.00
2023-03-15T05:29:42.032Z,0.00
2023-03-15T05:30:41.963Z,0.00
2023-03-15T05:31:41.992Z,0.00
2023-03-15T05:32:41.838Z,0.00
2023-03-15T05:33:41.768Z,0.00
2023-03-15T05:34:41.677Z,0.00
2023-03-15T05:35:41.640Z,0.00
2023-03-15T05:36:41.534Z,0.00
2023-03-15T05:37:41.463Z,0.00
2023-03-15T05:38:41.407Z,0.00
2023-03-15T05:39:41.324Z,0.00
2023-03-15T05:40:41.252Z,0.00
2023-03-15T05:41:41.241Z,0.00
2023-03-15T05:42:41.124Z,0.00
2023-03-15T05:43:41.045Z,0.00
2023-03-15T05:44:41.004Z,0.00
2023-03-15T05:45:41.007Z,0.00
2023-03-15T05:46:40.837Z,0.00
2023-03-15T05:47:40.821Z,0.00
2023-03-15T05:48:40.693Z,0.00
2023-03-15T05:49:40.671Z,0.00
2023-03-15T05:50:40.598Z,0.00
2023-03-15T05:51:40.538Z,0.00
2023-03-15T05:52:40.443Z,0.00
2023-03-15T05:53:40.338Z,0.00
2023-03-15T05:54:40.299Z,0.00
2023-03-15T05:55:40.199Z,0.00
2023-03-15T05:56:40.127Z,0.00
2023-03-15T05:57:40.058Z,0.00
2023-03-15T05:58:39.993Z,5.63
2023-03-15T05:59:39.916Z,5.63
2023-03-15T06:00:39.845Z,5.63
2023-03-15T06:01:39.780Z,5.63
2023-03-15T06:02:39.718Z,5.63
2023-03-15T06:03:39.678Z,5.63
2023-03-15T06:04:39.572Z,5.63
2023-03-15T06:05:39.497Z,5.63
2023-03-15T06:06:39.430Z,11.25
2023-03-15T06:07:39.355Z,11.25
2023-03-15T06:08:39.341Z,11.25
2023-03-15T06:09:39.245Z,11.25
2023-03-15T06:10:39.157Z,11.25
2023-03-15T06:11:39.072Z,11.25
2023-03-15T06:12:39.002Z,11.25
2023-03-15T06:13:38.958Z,16.88
2023-03-15T06:14:38.885Z,16.88
2023-03-15T06:15:38.807Z,16.88
2023-03-15T06:16:38.781Z,16.88
2023-03-15T06:17:38.659Z,11.25
2023-03-15T06:18:38.594Z,11.25
2023-03-15T06:19:38.511Z,11.25
2023-03-15T06:20:38.476Z,11.25
2023-03-15T06:21:38.386Z,16.88
2023-03-15T06:22:38.304Z,16.88
2023-03-15T06:23:38.238Z,16.88
2023-03-15T06:24:38.166Z,16.88
2023-03-15T06:25:38.090Z,16.88
2023-03-15T06:26:38.020Z,16.88
2023-03-15T06:27:37.953Z,22.50
2023-03-15T06:28:37.899Z,22.50
2023-03-15T06:29:37.816Z,22.50
2023-03-15T06:30:37.762Z,28.13
2023-03-15T06:31:37.688Z,28.13
2023-03-15T06:32:37.627Z,28.13
2023-03-15T06:33:37.537Z,33.75
2023-03-15T06:34:37.473Z,28.13
2023-03-15T06:35:37.423Z,28.13
2023-03-15T06:36:37.321Z,28.13
2023-03-15T06:37:37.388Z,28.13
2023-03-15T06:38:37.187Z,28.13
2023-03-15T06:39:37.126Z,28.13
2023-03-15T06:40:37.053Z,28.13
2023-03-15T06:41:36.993Z,22.50
2023-03-15T06:42:36.944Z,22.50
2023-03-15T06:43:36.875Z,22.50
2023-03-15T06:44:36.764Z,22.50
2023-03-15T06:45:36.691Z,22.50
2023-03-15T06:46:36.685Z,22.50
2023-03-15T06:47:36.553Z,22.50
2023-03-15T06:48:36.492Z,22.50
2023-03-15T06:49:36.422Z,22.50
2023-03-15T06:50:46.477Z,22.50
2023-03-15T06:51:36.380Z,28.13
2023-03-15T06:52:36.210Z,28.13
2023-03-15T06:53:36.152Z,33.75
2023-03-15T06:54:36.065Z,33.75
2023-03-15T06:55:35.998Z,33.75
2023-03-15T06:56:35.926Z,33.75
2023-03-15T06:57:35.912Z,33.75
2023-03-15T06:58:35.783Z,39.38
2023-03-15T06:59:35.716Z,39.38
2023-03-15T07:00:35.687Z,39.38
2023-03-15T07:01:35.630Z,39.38
2023-03-15T07:02:35.560Z,39.38
2023-03-15T07:03:35.437Z,39.38
2023-03-15T07:04:35.367Z,39.38
2023-03-15T07:05:35.298Z,39.38
2023-03-15T07:06:35.234Z,39.38
2023-03-15T07:07:35.164Z,39.38
2023-03-15T07:08:35.093Z,39.38
2023-03-15T07:09:35.058Z,45.00
2023-03-15T07:10:34.950Z,45.00
2023-03-15T07:11:34.908Z,45.00
2023-03-15T07:12:34.810Z,45.00
2023-03-15T07:13:34.742Z,45.00
2023-03-15T07:14:34.697Z,45.00
2023-03-15T07:15:34.602Z,45.00
2023-03-15T07:16:34.536Z,45.00
2023-03-15T07:17:34.466Z,45.00
2023-03-15T07:18:34.426Z,50.63
2023-03-15T07:19:35.776Z,50.63
2023-03-15T07:20:36.308Z,50.63
2023-03-15T07:21:34.254Z,56.25
2023-03-15T07:22:34.161Z,56.25
2023-03-15T07:23:34.056Z,56.25
2023-03-15T07:24:33.981Z,45.00
2023-03-15T07:25:44.904Z,39.38
2023-03-15T07:26:33.838Z,56.25
2023-03-15T07:27:33.783Z,61.88
2023-03-15T07:28:33.699Z,61.88
2023-03-15T07:29:33.652Z,61.88
2023-03-15T07:30:33.562Z,39.38
2023-03-15T07:31:33.497Z,45.00
2023-03-15T07:32:33.475Z,56.25
2023-03-15T07:33:33.354Z,61.88
2023-03-15T07:34:33.306Z,61.88
2023-03-15T07:35:33.223Z,39.38
2023-03-15T07:36:33.143Z,67.50
2023-03-15T07:37:33.074Z,61.88
2023-03-15T07:38:33.007Z,39.38
2023-03-15T07:39:32.937Z,56.25
2023-03-15T07:40:32.876Z,45.00
2023-03-15T07:41:32.791Z,56.25
2023-03-15T07:42:32.722Z,45.00
2023-03-15T07:43:32.653Z,61.88
2023-03-15T07:44:32.581Z,50.63
2023-03-15T07:45:32.537Z,45.00
2023-03-15T07:46:32.460Z,45.00
2023-03-15T07:47:32.369Z,50.63
2023-03-15T07:48:32.353Z,50.63
2023-03-15T07:49:32.284Z,39.38
2023-03-15T07:50:32.178Z,45.00
2023-03-15T07:51:32.088Z,33.75
2023-03-15T07:52:32.027Z,28.13
2023-03-15T07:53:31.982Z,28.13
2023-03-15T07:54:42.209Z,33.75
2023-03-15T07:56:38.976Z,33.75
2023-03-15T07:57:39.573Z,39.38
2023-03-15T07:58:38.623Z,33.75
2023-03-15T07:59:38.697Z,33.75
2023-03-15T08:00:38.427Z,33.75
2023-03-15T08:01:38.458Z,39.38
2023-03-15T08:02:38.298Z,39.38
2023-03-15T08:03:38.216Z,33.75
2023-03-15T08:04:38.147Z,39.38
2023-03-15T08:05:38.079Z,61.88
2023-03-15T08:06:38.035Z,67.50
2023-03-15T08:07:37.940Z,61.88
2023-03-15T08:08:37.871Z,73.13
2023-03-15T08:09:37.813Z,73.13
2023-03-15T08:10:37.742Z,84.38
2023-03-15T08:11:37.742Z,90.00
2023-03-15T08:13:59.619Z,101.25
2023-03-15T08:14:59.017Z,95.63
2023-03-15T08:15:59.070Z,78.75
2023-03-15T08:16:58.937Z,78.75
2023-03-15T08:17:58.810Z,73.13
2023-03-15T08:18:58.742Z,67.50
2023-03-15T08:19:58.693Z,50.63
2023-03-15T08:20:58.600Z,45.00
2023-03-15T08:21:58.547Z,39.38
2023-03-15T08:22:58.458Z,73.13
2023-03-15T08:23:58.390Z,39.38
2023-03-15T08:24:58.333Z,39.38
2023-03-15T08:25:58.256Z,73.13
2023-03-15T08:26:58.338Z,33.75
2023-03-15T08:31:18.482Z,39.38
2023-03-15T08:31:51.447Z,39.38
2023-03-15T08:33:56.572Z,45.00
2023-03-15T08:34:56.627Z,45.00
2023-03-15T08:35:56.474Z,73.13
2023-03-15T08:41:26.594Z,45.00
2023-03-15T08:42:26.287Z,39.38
2023-03-15T09:36:15.243Z,95.63
2023-03-15T09:37:15.299Z,90.00
2023-03-15T13:20:39.549Z,106.88
2023-03-15T13:21:39.400Z,118.13
2023-03-15T17:18:32.283Z,0.00
2023-03-15T17:19:32.140Z,0.00
